sensor_id;sensor_type;location;lat;lon;timestamp;P1;durP1;ratioP1;P2;durP2;ratioP2
13432;SDS011;6789;47.678;9.158;2022-09-12T00:10:38;2.35;;;2.13;;
13432;SDS011;6789;47.678;9.158;2022-09-12T01:09:11;2.90;;;2.33;;
13432;SDS011;6789;47.678;9.158;2022-09-12T01:14:08;3.47;;;2.50;;
13432;SDS011;6789;47.678;9.158;2022-09-12T01:19:10;2.93;;;2.37;;
13432;SDS011;6789;47.678;9.158;2022-09-12T01:45:45;3.53;;;1.93;;
13432;SDS011;6789;47.678;9.158;2022-09-12T01:50:50;3.57;;;1.90;;
13432;SDS011;6789;47.678;9.158;2022-09-12T01:55:48;2.87;;;2.00;;
13432;SDS011;6789;47.678;9.158;2022-09-12T02:00:56;2.23;;;1.93;;
13432;SDS011;6789;47.678;9.158;2022-09-12T02:06:00;2.57;;;2.03;;
13432;SDS011;6789;47.678;9.158;2022-09-12T02:11:09;2.90;;;2.13;;
13432;SDS011;6789;47.678;9.158;2022-09-12T02:16:18;4.07;;;2.33;;
13432;SDS011;6789;47.678;9.158;2022-09-12T02:21:20;5.57;;;2.40;;
13432;SDS011;6789;47.678;9.158;2022-09-12T02:26:20;5.17;;;2.10;;
13432;SDS011;6789;47.678;9.158;2022-09-12T02:42:16;2.20;;;1.83;;
13432;SDS011;6789;47.678;9.158;2022-09-12T02:52:39;2.17;;;1.90;;
13432;SDS011;6789;47.678;9.158;2022-09-12T02:57:33;4.47;;;1.77;;
13432;SDS011;6789;47.678;9.158;2022-09-12T03:18:08;3.10;;;2.37;;
13432;SDS011;6789;47.678;9.158;2022-09-12T03:23:41;2.63;;;2.03;;
13432;SDS011;6789;47.678;9.158;2022-09-12T03:28:47;2.27;;;2.07;;
13432;SDS011;6789;47.678;9.158;2022-09-12T03:33:41;3.03;;;2.20;;
13432;SDS011;6789;47.678;9.158;2022-09-12T03:38:33;3.77;;;2.20;;
13432;SDS011;6789;47.678;9.158;2022-09-12T03:43:25;2.20;;;2.00;;
13432;SDS011;6789;47.678;9.158;2022-09-12T03:53:23;3.80;;;2.23;;
13432;SDS011;6789;47.678;9.158;2022-09-12T03:58:29;3.43;;;2.20;;
13432;SDS011;6789;47.678;9.158;2022-09-12T04:03:21;2.87;;;2.30;;
13432;SDS011;6789;47.678;9.158;2022-09-12T04:22:21;3.30;;;2.10;;
13432;SDS011;6789;47.678;9.158;2022-09-12T04:29:05;3.77;;;2.33;;
13432;SDS011;6789;47.678;9.158;2022-09-12T04:35:30;5.83;;;2.87;;
13432;SDS011;6789;47.678;9.158;2022-09-12T04:41:21;2.93;;;2.30;;
13432;SDS011;6789;47.678;9.158;2022-09-12T04:47:13;4.70;;;2.60;;
13432;SDS011;6789;47.678;9.158;2022-09-12T05:24:21;10.47;;;3.70;;
13432;SDS011;6789;47.678;9.158;2022-09-12T05:29:55;6.90;;;3.75;;
13432;SDS011;6789;47.678;9.158;2022-09-12T05:35:56;7.15;;;3.33;;
13432;SDS011;6789;47.678;9.158;2022-09-12T05:41:50;5.30;;;4.07;;
13432;SDS011;6789;47.678;9.158;2022-09-12T05:47:53;6.43;;;3.00;;
13432;SDS011;6789;47.678;9.158;2022-09-12T05:54:30;4.10;;;3.30;;
13432;SDS011;6789;47.678;9.158;2022-09-12T05:59:40;5.65;;;3.95;;
13432;SDS011;6789;47.678;9.158;2022-09-12T06:05:56;5.80;;;3.88;;
13432;SDS011;6789;47.678;9.158;2022-09-12T06:11:36;3.17;;;2.88;;
13432;SDS011;6789;47.678;9.158;2022-09-12T06:16:57;4.97;;;3.80;;
13432;SDS011;6789;47.678;9.158;2022-09-12T06:28:11;5.25;;;2.92;;
13432;SDS011;6789;47.678;9.158;2022-09-12T06:33:42;4.53;;;2.80;;
13432;SDS011;6789;47.678;9.158;2022-09-12T06:39:25;4.03;;;2.83;;
13432;SDS011;6789;47.678;9.158;2022-09-12T06:45:48;6.30;;;3.15;;
13432;SDS011;6789;47.678;9.158;2022-09-12T06:51:11;5.57;;;3.60;;
13432;SDS011;6789;47.678;9.158;2022-09-12T06:57:07;2.80;;;1.85;;
13432;SDS011;6789;47.678;9.158;2022-09-12T07:02:25;2.65;;;2.40;;
13432;SDS011;6789;47.678;9.158;2022-09-12T07:07:24;1.95;;;1.70;;
13432;SDS011;6789;47.678;9.158;2022-09-12T07:12:31;2.97;;;2.58;;
13432;SDS011;6789;47.678;9.158;2022-09-12T07:17:37;2.22;;;1.88;;
13432;SDS011;6789;47.678;9.158;2022-09-12T07:22:42;2.83;;;1.77;;
13432;SDS011;6789;47.678;9.158;2022-09-12T07:28:06;1.63;;;1.48;;
13432;SDS011;6789;47.678;9.158;2022-09-12T07:33:16;2.75;;;2.30;;
13432;SDS011;6789;47.678;9.158;2022-09-12T07:38:22;3.60;;;2.50;;
13432;SDS011;6789;47.678;9.158;2022-09-12T07:43:17;2.78;;;1.95;;
13432;SDS011;6789;47.678;9.158;2022-09-12T07:48:10;3.75;;;1.98;;
13432;SDS011;6789;47.678;9.158;2022-09-12T07:53:32;3.05;;;2.05;;
13432;SDS011;6789;47.678;9.158;2022-09-12T07:58:28;2.83;;;1.67;;
13432;SDS011;6789;47.678;9.158;2022-09-12T08:03:21;1.92;;;1.45;;
13432;SDS011;6789;47.678;9.158;2022-09-12T08:08:27;1.55;;;1.40;;
13432;SDS011;6789;47.678;9.158;2022-09-12T08:13:21;2.72;;;1.65;;
13432;SDS011;6789;47.678;9.158;2022-09-12T08:18:13;1.83;;;1.60;;
13432;SDS011;6789;47.678;9.158;2022-09-12T08:23:19;5.72;;;1.60;;
13432;SDS011;6789;47.678;9.158;2022-09-12T08:28:15;2.30;;;1.55;;
13432;SDS011;6789;47.678;9.158;2022-09-12T08:33:07;1.83;;;1.33;;
13432;SDS011;6789;47.678;9.158;2022-09-12T08:37:58;3.13;;;1.80;;
13432;SDS011;6789;47.678;9.158;2022-09-12T08:42:59;2.90;;;2.00;;
13432;SDS011;6789;47.678;9.158;2022-09-12T08:48:14;2.17;;;1.60;;
13432;SDS011;6789;47.678;9.158;2022-09-12T08:53:11;4.57;;;1.90;;
13432;SDS011;6789;47.678;9.158;2022-09-12T08:58:21;2.90;;;1.80;;
13432;SDS011;6789;47.678;9.158;2022-09-12T09:08:54;3.47;;;1.85;;
13432;SDS011;6789;47.678;9.158;2022-09-12T09:19:42;2.88;;;1.67;;
13432;SDS011;6789;47.678;9.158;2022-09-12T09:24:52;3.10;;;1.60;;
13432;SDS011;6789;47.678;9.158;2022-09-12T09:29:53;1.63;;;1.40;;
13432;SDS011;6789;47.678;9.158;2022-09-12T09:34:46;2.25;;;1.55;;
13432;SDS011;6789;47.678;9.158;2022-09-12T09:39:49;1.50;;;1.40;;
13432;SDS011;6789;47.678;9.158;2022-09-12T09:44:58;1.60;;;1.50;;
13432;SDS011;6789;47.678;9.158;2022-09-12T09:50:01;1.55;;;1.40;;
13432;SDS011;6789;47.678;9.158;2022-09-12T09:54:55;1.80;;;1.40;;
13432;SDS011;6789;47.678;9.158;2022-09-12T09:59:50;3.10;;;1.45;;
13432;SDS011;6789;47.678;9.158;2022-09-12T10:04:51;2.22;;;1.40;;
13432;SDS011;6789;47.678;9.158;2022-09-12T10:15:18;1.48;;;1.30;;
13432;SDS011;6789;47.678;9.158;2022-09-12T10:20:40;3.35;;;1.50;;
13432;SDS011;6789;47.678;9.158;2022-09-12T10:25:52;2.25;;;1.52;;
13432;SDS011;6789;47.678;9.158;2022-09-12T10:30:50;2.53;;;1.40;;
13432;SDS011;6789;47.678;9.158;2022-09-12T10:35:51;3.33;;;1.27;;
13432;SDS011;6789;47.678;9.158;2022-09-12T10:40:54;1.52;;;1.33;;
13432;SDS011;6789;47.678;9.158;2022-09-12T10:45:57;1.50;;;1.40;;
13432;SDS011;6789;47.678;9.158;2022-09-12T10:56:22;3.80;;;1.27;;
13432;SDS011;6789;47.678;9.158;2022-09-12T11:01:58;2.75;;;1.15;;
13432;SDS011;6789;47.678;9.158;2022-09-12T11:07:39;1.77;;;1.20;;
13432;SDS011;6789;47.678;9.158;2022-09-12T11:18:26;2.17;;;1.27;;
13432;SDS011;6789;47.678;9.158;2022-09-12T11:33:59;1.30;;;1.17;;
13432;SDS011;6789;47.678;9.158;2022-09-12T11:39:07;1.60;;;1.38;;
13432;SDS011;6789;47.678;9.158;2022-09-12T11:49:37;2.03;;;1.20;;
13432;SDS011;6789;47.678;9.158;2022-09-12T11:54:49;2.53;;;1.20;;
13432;SDS011;6789;47.678;9.158;2022-09-12T12:05:24;1.30;;;1.20;;
13432;SDS011;6789;47.678;9.158;2022-09-12T12:10:32;1.20;;;1.10;;
13432;SDS011;6789;47.678;9.158;2022-09-12T12:15:33;1.40;;;1.30;;
13432;SDS011;6789;47.678;9.158;2022-09-12T12:20:28;1.50;;;1.27;;
13432;SDS011;6789;47.678;9.158;2022-09-12T12:25:22;3.40;;;1.20;;
13432;SDS011;6789;47.678;9.158;2022-09-12T12:35:37;1.92;;;1.40;;
13432;SDS011;6789;47.678;9.158;2022-09-12T12:40:36;2.00;;;0.90;;
13432;SDS011;6789;47.678;9.158;2022-09-12T12:50:27;1.48;;;0.90;;
13432;SDS011;6789;47.678;9.158;2022-09-12T13:00:25;2.53;;;1.25;;
13432;SDS011;6789;47.678;9.158;2022-09-12T13:05:24;4.35;;;1.10;;
13432;SDS011;6789;47.678;9.158;2022-09-12T13:10:25;1.70;;;1.30;;
13432;SDS011;6789;47.678;9.158;2022-09-12T13:20:28;2.58;;;1.00;;
13432;SDS011;6789;47.678;9.158;2022-09-12T13:25:43;1.45;;;1.10;;
13432;SDS011;6789;47.678;9.158;2022-09-12T13:31:11;1.45;;;1.20;;
13432;SDS011;6789;47.678;9.158;2022-09-12T13:47:34;3.55;;;1.05;;
13432;SDS011;6789;47.678;9.158;2022-09-12T13:52:51;1.55;;;1.10;;
13432;SDS011;6789;47.678;9.158;2022-09-12T13:58:03;0.70;;;0.70;;
13432;SDS011;6789;47.678;9.158;2022-09-12T14:03:37;1.80;;;0.93;;
13432;SDS011;6789;47.678;9.158;2022-09-12T14:09:11;1.35;;;0.90;;
13432;SDS011;6789;47.678;9.158;2022-09-12T14:19:24;1.55;;;0.88;;
13432;SDS011;6789;47.678;9.158;2022-09-12T14:24:33;1.27;;;0.70;;
13432;SDS011;6789;47.678;9.158;2022-09-12T14:29:40;0.73;;;0.70;;
13432;SDS011;6789;47.678;9.158;2022-09-12T14:35:02;0.95;;;0.80;;
13432;SDS011;6789;47.678;9.158;2022-09-12T14:40:20;2.70;;;0.75;;
13432;SDS011;6789;47.678;9.158;2022-09-12T14:45:29;0.77;;;0.65;;
13432;SDS011;6789;47.678;9.158;2022-09-12T14:50:25;1.63;;;1.00;;
13432;SDS011;6789;47.678;9.158;2022-09-12T14:55:26;2.83;;;1.10;;
13432;SDS011;6789;47.678;9.158;2022-09-12T15:00:36;2.28;;;0.70;;
13432;SDS011;6789;47.678;9.158;2022-09-12T15:05:48;1.40;;;1.00;;
13432;SDS011;6789;47.678;9.158;2022-09-12T15:10:55;2.60;;;0.75;;
13432;SDS011;6789;47.678;9.158;2022-09-12T15:15:57;1.48;;;0.80;;
13432;SDS011;6789;47.678;9.158;2022-09-12T15:21:06;1.92;;;0.98;;
13432;SDS011;6789;47.678;9.158;2022-09-12T15:26:06;0.90;;;0.70;;
13432;SDS011;6789;47.678;9.158;2022-09-12T15:31:23;1.48;;;1.10;;
13432;SDS011;6789;47.678;9.158;2022-09-12T15:36:32;1.80;;;0.70;;
13432;SDS011;6789;47.678;9.158;2022-09-12T15:41:38;0.93;;;0.90;;
13432;SDS011;6789;47.678;9.158;2022-09-12T15:46:31;1.60;;;0.80;;
13432;SDS011;6789;47.678;9.158;2022-09-12T15:51:27;1.60;;;0.75;;
13432;SDS011;6789;47.678;9.158;2022-09-12T15:56:33;0.60;;;0.60;;
13432;SDS011;6789;47.678;9.158;2022-09-12T16:01:39;0.80;;;0.70;;
13432;SDS011;6789;47.678;9.158;2022-09-12T16:06:32;0.65;;;0.60;;
13432;SDS011;6789;47.678;9.158;2022-09-12T16:11:27;1.85;;;0.90;;
13432;SDS011;6789;47.678;9.158;2022-09-12T16:16:19;1.05;;;0.90;;
13432;SDS011;6789;47.678;9.158;2022-09-12T16:21:14;0.85;;;0.80;;
13432;SDS011;6789;47.678;9.158;2022-09-12T16:26:06;1.98;;;0.82;;
13432;SDS011;6789;47.678;9.158;2022-09-12T16:31:02;1.38;;;1.02;;
13432;SDS011;6789;47.678;9.158;2022-09-12T16:36:07;1.98;;;0.93;;
13432;SDS011;6789;47.678;9.158;2022-09-12T16:41:03;1.08;;;0.80;;
13432;SDS011;6789;47.678;9.158;2022-09-12T16:46:00;0.82;;;0.80;;
13432;SDS011;6789;47.678;9.158;2022-09-12T16:51:04;1.17;;;0.90;;
13432;SDS011;6789;47.678;9.158;2022-09-12T16:55:57;0.70;;;0.70;;
13432;SDS011;6789;47.678;9.158;2022-09-12T17:00:58;1.73;;;1.17;;
13432;SDS011;6789;47.678;9.158;2022-09-12T17:06:07;0.95;;;0.90;;
13432;SDS011;6789;47.678;9.158;2022-09-12T17:11:06;1.15;;;0.85;;
13432;SDS011;6789;47.678;9.158;2022-09-12T17:16:08;1.33;;;1.00;;
13432;SDS011;6789;47.678;9.158;2022-09-12T17:21:05;0.85;;;0.85;;
13432;SDS011;6789;47.678;9.158;2022-09-12T17:26:00;2.97;;;1.30;;
13432;SDS011;6789;47.678;9.158;2022-09-12T17:30:56;3.38;;;1.20;;
13432;SDS011;6789;47.678;9.158;2022-09-12T17:35:53;1.63;;;1.50;;
13432;SDS011;6789;47.678;9.158;2022-09-12T17:40:50;3.15;;;1.58;;
13432;SDS011;6789;47.678;9.158;2022-09-12T17:45:54;2.47;;;1.70;;
13432;SDS011;6789;47.678;9.158;2022-09-12T17:50:50;2.17;;;1.90;;
13432;SDS011;6789;47.678;9.158;2022-09-12T17:55:44;2.95;;;1.90;;
13432;SDS011;6789;47.678;9.158;2022-09-12T18:00:43;3.75;;;1.88;;
13432;SDS011;6789;47.678;9.158;2022-09-12T18:05:54;2.85;;;2.10;;
13432;SDS011;6789;47.678;9.158;2022-09-12T18:11:03;2.55;;;1.90;;
13432;SDS011;6789;47.678;9.158;2022-09-12T18:16:01;3.00;;;2.05;;
13432;SDS011;6789;47.678;9.158;2022-09-12T18:20:58;4.03;;;2.42;;
13432;SDS011;6789;47.678;9.158;2022-09-12T18:26:04;3.17;;;2.40;;
13432;SDS011;6789;47.678;9.158;2022-09-12T18:30:59;5.18;;;2.42;;
13432;SDS011;6789;47.678;9.158;2022-09-12T18:35:50;3.60;;;2.20;;
13432;SDS011;6789;47.678;9.158;2022-09-12T18:40:43;3.75;;;2.42;;
13432;SDS011;6789;47.678;9.158;2022-09-12T18:45:35;3.17;;;1.92;;
13432;SDS011;6789;47.678;9.158;2022-09-12T18:50:27;4.35;;;2.25;;
13432;SDS011;6789;47.678;9.158;2022-09-12T18:55:19;2.95;;;2.05;;
13432;SDS011;6789;47.678;9.158;2022-09-12T19:00:11;5.03;;;1.95;;
13432;SDS011;6789;47.678;9.158;2022-09-12T19:05:04;2.75;;;2.40;;
13432;SDS011;6789;47.678;9.158;2022-09-12T19:09:56;3.75;;;2.88;;
13432;SDS011;6789;47.678;9.158;2022-09-12T19:14:48;4.55;;;2.58;;
13432;SDS011;6789;47.678;9.158;2022-09-12T19:19:40;5.63;;;3.30;;
13432;SDS011;6789;47.678;9.158;2022-09-12T19:24:32;4.80;;;2.67;;
13432;SDS011;6789;47.678;9.158;2022-09-12T19:29:23;5.43;;;2.72;;
13432;SDS011;6789;47.678;9.158;2022-09-12T19:34:15;4.80;;;3.47;;
13432;SDS011;6789;47.678;9.158;2022-09-12T19:39:08;4.40;;;3.13;;
13432;SDS011;6789;47.678;9.158;2022-09-12T19:44:00;3.90;;;2.30;;
13432;SDS011;6789;47.678;9.158;2022-09-12T19:48:53;3.03;;;2.20;;
13432;SDS011;6789;47.678;9.158;2022-09-12T19:54:00;2.88;;;2.28;;
13432;SDS011;6789;47.678;9.158;2022-09-12T19:59:23;5.22;;;2.92;;
13432;SDS011;6789;47.678;9.158;2022-09-12T20:04:15;4.93;;;2.58;;
13432;SDS011;6789;47.678;9.158;2022-09-12T20:09:07;3.28;;;2.60;;
13432;SDS011;6789;47.678;9.158;2022-09-12T20:14:13;3.17;;;2.10;;
13432;SDS011;6789;47.678;9.158;2022-09-12T20:19:18;2.33;;;1.60;;
13432;SDS011;6789;47.678;9.158;2022-09-12T20:24:11;2.13;;;1.92;;
13432;SDS011;6789;47.678;9.158;2022-09-12T20:29:11;2.55;;;1.90;;
13432;SDS011;6789;47.678;9.158;2022-09-12T20:34:13;2.88;;;1.80;;
13432;SDS011;6789;47.678;9.158;2022-09-12T20:39:14;3.42;;;2.00;;
13432;SDS011;6789;47.678;9.158;2022-09-12T20:44:23;2.42;;;1.67;;
13432;SDS011;6789;47.678;9.158;2022-09-12T20:49:15;1.83;;;1.50;;
13432;SDS011;6789;47.678;9.158;2022-09-12T20:54:08;3.08;;;1.77;;
13432;SDS011;6789;47.678;9.158;2022-09-12T20:59:02;2.70;;;1.50;;
13432;SDS011;6789;47.678;9.158;2022-09-12T21:03:57;3.70;;;1.92;;
13432;SDS011;6789;47.678;9.158;2022-09-12T21:08:54;3.47;;;1.88;;
13432;SDS011;6789;47.678;9.158;2022-09-12T21:13:51;3.65;;;2.03;;
13432;SDS011;6789;47.678;9.158;2022-09-12T21:18:44;2.25;;;1.90;;
13432;SDS011;6789;47.678;9.158;2022-09-12T21:23:37;2.40;;;1.92;;
13432;SDS011;6789;47.678;9.158;2022-09-12T21:28:30;3.10;;;2.17;;
13432;SDS011;6789;47.678;9.158;2022-09-12T21:33:36;4.60;;;2.35;;
13432;SDS011;6789;47.678;9.158;2022-09-12T21:38:28;4.47;;;2.60;;
13432;SDS011;6789;47.678;9.158;2022-09-12T21:43:20;3.05;;;2.10;;
13432;SDS011;6789;47.678;9.158;2022-09-12T21:48:12;3.20;;;2.10;;
13432;SDS011;6789;47.678;9.158;2022-09-12T21:53:04;5.18;;;2.30;;
13432;SDS011;6789;47.678;9.158;2022-09-12T21:57:56;6.60;;;2.45;;
13432;SDS011;6789;47.678;9.158;2022-09-12T22:02:48;2.80;;;2.20;;
13432;SDS011;6789;47.678;9.158;2022-09-12T22:07:40;3.33;;;2.85;;
13432;SDS011;6789;47.678;9.158;2022-09-12T22:12:35;6.05;;;2.40;;
13432;SDS011;6789;47.678;9.158;2022-09-12T22:17:27;2.33;;;2.13;;
13432;SDS011;6789;47.678;9.158;2022-09-12T22:22:18;2.78;;;2.00;;
13432;SDS011;6789;47.678;9.158;2022-09-12T22:27:29;3.88;;;2.10;;
13432;SDS011;6789;47.678;9.158;2022-09-12T22:32:25;3.22;;;1.88;;
13432;SDS011;6789;47.678;9.158;2022-09-12T22:37:18;3.50;;;1.77;;
13432;SDS011;6789;47.678;9.158;2022-09-12T22:42:10;2.15;;;1.90;;
13432;SDS011;6789;47.678;9.158;2022-09-12T22:47:03;2.40;;;2.00;;
13432;SDS011;6789;47.678;9.158;2022-09-12T22:52:02;3.75;;;2.10;;
13432;SDS011;6789;47.678;9.158;2022-09-12T22:57:08;3.78;;;2.10;;
13432;SDS011;6789;47.678;9.158;2022-09-12T23:02:00;4.22;;;2.00;;
13432;SDS011;6789;47.678;9.158;2022-09-12T23:06:52;2.30;;;2.00;;
13432;SDS011;6789;47.678;9.158;2022-09-12T23:11:45;4.68;;;1.80;;
13432;SDS011;6789;47.678;9.158;2022-09-12T23:16:36;2.20;;;2.00;;
13432;SDS011;6789;47.678;9.158;2022-09-12T23:21:28;3.53;;;2.30;;
13432;SDS011;6789;47.678;9.158;2022-09-12T23:26:21;2.42;;;1.88;;
13432;SDS011;6789;47.678;9.158;2022-09-12T23:31:15;3.60;;;1.63;;
13432;SDS011;6789;47.678;9.158;2022-09-12T23:36:08;2.65;;;2.03;;
13432;SDS011;6789;47.678;9.158;2022-09-12T23:41:10;2.70;;;1.80;;
13432;SDS011;6789;47.678;9.158;2022-09-12T23:46:07;3.03;;;1.95;;
13432;SDS011;6789;47.678;9.158;2022-09-12T23:50:59;2.42;;;2.22;;
13432;SDS011;6789;47.678;9.158;2022-09-12T23:55:53;6.68;;;2.22;;
